Data for 01/22/2010

Time Sea-Level Adjusted Pressure Absolute Pressure Temperature Relative Humidity Dew Point   
(mb) (inHg) (mb) (inHg) (C) (F) (%) (C) (F)
00:05 996 29.41 825 24.36 -2.6 27.3 63 -8.7 16.4
00:10 996 29.41 825 24.36 -2.6 27.4 65 -8.3 17.1
00:15 996 29.41 825 24.36 -1.8 28.8 63 -7.9 17.7
00:20 996 29.41 825 24.36 -1.6 29.1 63 -7.9 17.9
00:25 996 29.41 825 24.36 -1.7 28.9 63 -7.9 17.9
00:30 996 29.41 825 24.36 -1.9 28.5 64 -7.8 17.9
00:35 996 29.41 825 24.36 -1.9 28.6 64 -7.8 18
00:40 996 29.41 825 24.36 -1.8 28.7 64 -7.7 18.1
00:45 995 29.38 825 24.36 -2 28.5 64 -7.8 17.9
00:50 995 29.38 825 24.36 -2.1 28.3 65 -7.9 17.8
00:55 995 29.38 824 24.33 -2.1 28.2 65 -7.9 17.7
01:00 995 29.38 824 24.33 -2 28.4 64 -7.9 17.7
01:05 995 29.38 824 24.33 -1.8 28.8 62 -8 17.5
01:10 995 29.38 824 24.33 -1.5 29.3 62 -7.9 17.8
01:15 995 29.38 824 24.33 -1.4 29.5 61 -7.9 17.8
01:20 995 29.38 824 24.33 -1.5 29.3 62 -7.8 17.9
01:25 995 29.38 824 24.33 -1.7 29 63 -7.9 17.8
01:30 995 29.38 824 24.33 -1.9 28.6 63 -8 17.6
01:35 995 29.38 824 24.33 -2.2 28.1 64 -8 17.6
01:40 994 29.35 824 24.33 -2.5 27.5 65 -8.1 17.4
01:45 994 29.35 824 24.33 -2.6 27.2 66 -8.2 17.2
01:50 994 29.35 823 24.3 -2.4 27.7 64 -8.3 17.1
01:55 994 29.35 823 24.3 -2 28.4 63 -8.1 17.4
02:00 994 29.35 823 24.3 -2.2 28.1 64 -8 17.5
02:05 994 29.35 823 24.3 -2.4 27.7 66 -8 17.6
02:10 994 29.35 823 24.3 -2.5 27.5 66 -8.1 17.5
02:15 994 29.35 823 24.3 -2.6 27.3 65 -8.2 17.2
02:20 994 29.35 823 24.3 -2.6 27.3 65 -8.3 17.1
02:25 994 29.35 823 24.3 -2.5 27.5 65 -8.2 17.2
02:30 993 29.32 823 24.3 -2.6 27.3 65 -8.3 17.1
02:35 993 29.32 822 24.27 -2.7 27.1 66 -8.3 17.1
02:40 993 29.32 822 24.27 -2.9 26.7 66 -8.4 16.8
02:45 992 29.29 822 24.27 -2.9 26.8 66 -8.3 17
02:50 992 29.29 821 24.24 -3.1 26.5 67 -8.4 16.9
02:55 992 29.29 821 24.24 -3.2 26.2 68 -8.4 17
03:00 992 29.29 821 24.24 -3 26.6 66 -8.5 16.7
03:05 992 29.29 821 24.24 -2.7 27.2 65 -8.3 17
03:10 992 29.29 821 24.24 -2.5 27.4 65 -8.2 17.2
03:15 992 29.29 822 24.27 -2.3 27.8 64 -8.2 17.2
03:20 993 29.32 822 24.27 -2.2 28.1 63 -8.4 16.9
03:25 993 29.32 822 24.27 -2 28.3 62 -8.3 17.1
03:30 993 29.32 822 24.27 -2.2 28.1 63 -8.3 17
03:35 993 29.32 822 24.27 -2.1 28.2 62 -8.5 16.7
03:40 993 29.32 822 24.27 -2 28.5 62 -8.3 17.1
03:45 993 29.32 822 24.27 -1.9 28.5 62 -8.3 17.1
03:50 993 29.32 822 24.27 -2.1 28.2 64 -8 17.6
03:55 992 29.29 822 24.27 -2.4 27.8 65 -8 17.6
04:00 992 29.29 822 24.27 -2.5 27.6 66 -8 17.6
04:05 992 29.29 822 24.27 -2.5 27.4 66 -8 17.6
04:10 992 29.29 821 24.24 -2.7 27.2 66 -8.1 17.4
04:15 992 29.29 821 24.24 -2.8 27 67 -8 17.5
04:20 992 29.29 821 24.24 -2.9 26.9 66 -8.2 17.2
04:25 992 29.29 821 24.24 -2.8 27 67 -8.1 17.5
04:30 992 29.29 821 24.24 -2.7 27.1 66 -8.2 17.3
04:35 992 29.29 821 24.24 -2.7 27.2 67 -8 17.5
04:40 992 29.29 821 24.24 -2.7 27.2 66 -8.1 17.4
04:45 992 29.29 821 24.24 -2.8 27 67 -8 17.5
04:50 992 29.29 821 24.24 -2.9 26.8 68 -8 17.5
04:55 992 29.29 821 24.24 -3 26.5 68 -8.1 17.5
05:00 992 29.29 821 24.24 -3.1 26.4 69 -8 17.5
05:05 991 29.26 821 24.24 -3.3 26.1 70 -8 17.6
05:10 992 29.29 821 24.24 -3.4 25.9 70 -8.1 17.4
05:15 992 29.29 821 24.24 -3.5 25.7 70 -8.2 17.3
05:20 992 29.29 821 24.24 -3.6 25.6 71 -8.1 17.4
05:25 992 29.29 821 24.24 -3.7 25.3 72 -8.1 17.4
05:30 992 29.29 821 24.24 -3.7 25.3 72 -8.1 17.4
05:35 992 29.29 821 24.24 -3.7 25.3 73 -7.9 17.7
05:40 991 29.26 821 24.24 -3.7 25.3 73 -7.9 17.8
05:45 991 29.26 820 24.21 -3.8 25.2 74 -7.9 17.9
05:50 991 29.26 820 24.21 -3.8 25.2 73 -7.8 17.9
05:55 991 29.26 820 24.21 -3.8 25.2 75 -7.7 18.2
06:00 991 29.26 821 24.24 -3.7 25.4 74 -7.7 18.2
06:05 992 29.29 821 24.24 -3.7 25.3 74 -7.6 18.2
06:10 992 29.29 821 24.24 -3.6 25.5 74 -7.5 18.4
06:15 992 29.29 821 24.24 -3.5 25.7 74 -7.4 18.6
06:20 992 29.29 821 24.24 -3.4 25.8 75 -7.3 18.9
06:25 992 29.29 821 24.24 -3.6 25.6 75 -7.3 18.8
06:30 992 29.29 821 24.24 -3.6 25.6 76 -7.2 19.1
06:35 992 29.29 821 24.24 -3.4 25.9 76 -7 19.3
06:40 992 29.29 821 24.24 -3.4 25.9 76 -7 19.4
06:45 992 29.29 821 24.24 -3.4 25.9 78 -6.7 19.9
06:50 992 29.29 821 24.24 -3.5 25.7 80 -6.4 20.5
06:55 992 29.29 821 24.24 -3.6 25.5 81 -6.4 20.4
07:00 992 29.29 821 24.24 -3.7 25.4 82 -6.2 20.8
07:05 992 29.29 821 24.24 -3.8 25.2 82 -6.4 20.5
07:10 992 29.29 821 24.24 -3.8 25.2 82 -6.4 20.5
07:15 992 29.29 821 24.24 -3.8 25.2 81 -6.6 20.1
07:20 992 29.29 821 24.24 -3.7 25.4 80 -6.7 20
07:25 992 29.29 821 24.24 -3.6 25.4 80 -6.6 20.1
07:30 992 29.29 821 24.24 -3.6 25.4 80 -6.7 20
07:35 992 29.29 821 24.24 -3.6 25.5 80 -6.6 20.2
07:40 992 29.29 821 24.24 -3.6 25.5 80 -6.6 20.2
07:45 992 29.29 821 24.24 -3.5 25.7 80 -6.4 20.4
07:50 992 29.29 821 24.24 -3.5 25.7 81 -6.3 20.6
07:55 992 29.29 821 24.24 -3.5 25.7 82 -6.2 20.9
08:00 992 29.29 821 24.24 -3.5 25.7 83 -6 21.3
08:05 992 29.29 821 24.24 -3.6 25.6 85 -5.7 21.8
08:10 992 29.29 821 24.24 -3.7 25.3 87 -5.5 22.1
08:15 992 29.29 821 24.24 -3.8 25.2 89 -5.3 22.4
08:20 992 29.29 821 24.24 -3.8 25.1 89 -5.3 22.4
08:25 992 29.29 821 24.24 -3.8 25.1 90 -5.3 22.5
08:30 992 29.29 821 24.24 -3.9 25 90 -5.2 22.6
08:35 992 29.29 821 24.24 -3.8 25.1 90 -5.2 22.6
08:40 992 29.29 821 24.24 -3.8 25.2 90 -5.2 22.6
08:45 992 29.29 821 24.24 -3.7 25.3 90 -5.1 22.7
08:50 992 29.29 821 24.24 -3.7 25.3 90 -5.2 22.7
08:55 992 29.29 821 24.24 -3.7 25.4 90 -5.1 22.7
09:00 992 29.29 821 24.24 -3.6 25.5 89 -5.1 22.8
09:05 992 29.29 821 24.24 -3.6 25.6 89 -5.2 22.7
09:10 992 29.29 821 24.24 -3.5 25.7 89 -5.1 22.8
09:15 992 29.29 821 24.24 -3.4 25.9 88 -5.2 22.6
09:20 992 29.29 821 24.24 -3.3 26 87 -5.3 22.5
09:25 992 29.29 821 24.24 -3.3 26.1 86 -5.4 22.3
09:30 992 29.29 821 24.24 -3.2 26.2 85 -5.4 22.3
09:35 992 29.29 821 24.24 -3.2 26.3 84 -5.5 22.1
09:40 992 29.29 821 24.24 -3.1 26.4 84 -5.5 22.1
09:45 992 29.29 821 24.24 -3.1 26.4 84 -5.5 22.1
09:50 992 29.29 821 24.24 -3.1 26.4 82 -5.7 21.7
09:55 992 29.29 821 24.24 -3.1 26.5 82 -5.8 21.6
10:00 992 29.29 821 24.24 -3.1 26.4 82 -5.7 21.7
10:05 992 29.29 821 24.24 -3.1 26.5 81 -5.8 21.6
10:10 992 29.29 821 24.24 -3 26.6 80 -6 21.2
10:15 992 29.29 821 24.24 -3 26.6 80 -6 21.3
10:20 992 29.29 821 24.24 -3 26.7 79 -6.1 20.9
10:25 992 29.29 821 24.24 -3 26.7 80 -6 21.2
10:30 992 29.29 821 24.24 -2.9 26.7 79 -6 21.2
10:35 992 29.29 821 24.24 -3 26.7 80 -6 21.2
10:40 992 29.29 821 24.24 -3 26.6 80 -5.9 21.3
10:45 992 29.29 821 24.24 -3.1 26.5 80 -6 21.2
10:50 992 29.29 821 24.24 -3 26.6 80 -5.9 21.3
10:55 992 29.29 821 24.24 -3.1 26.5 81 -5.8 21.5
11:00 992 29.29 821 24.24 -3 26.5 81 -5.9 21.5
11:05 992 29.29 821 24.24 -3 26.6 81 -5.8 21.5
11:10 992 29.29 821 24.24 -3 26.6 81 -5.7 21.7
11:15 992 29.29 821 24.24 -3 26.5 82 -5.7 21.7
11:20 992 29.29 821 24.24 -3.1 26.5 82 -5.7 21.8
11:25 992 29.29 821 24.24 -3 26.6 81 -5.8 21.6
11:30 992 29.29 821 24.24 -2.9 26.7 81 -5.8 21.6
11:35 992 29.29 821 24.24 -2.9 26.8 81 -5.7 21.8
11:40 992 29.29 821 24.24 -2.8 27 81 -5.6 21.9
11:45 992 29.29 821 24.24 -2.8 27 80 -5.8 21.6
11:50 992 29.29 821 24.24 -2.7 27.1 80 -5.8 21.6
11:55 992 29.29 821 24.24 -2.7 27.2 79 -5.8 21.6
12:00 992 29.29 821 24.24 -2.6 27.3 79 -5.7 21.7
12:05 992 29.29 821 24.24 -2.6 27.3 79 -5.8 21.6
12:10 992 29.29 821 24.24 -2.6 27.3 78 -5.9 21.4
12:15 992 29.29 821 24.24 -2.5 27.5 79 -5.7 21.8
12:20 992 29.29 821 24.24 -2.5 27.5 79 -5.6 21.8
12:25 992 29.29 821 24.24 -2.6 27.4 79 -5.7 21.8
12:30 992 29.29 821 24.24 -2.5 27.6 78 -5.7 21.7
12:35 992 29.29 821 24.24 -2.4 27.8 77 -5.9 21.5
12:40 992 29.29 821 24.24 -2.3 27.9 77 -5.8 21.5
12:45 992 29.29 821 24.24 -2.2 28 76 -5.9 21.3
12:50 992 29.29 821 24.24 -2.2 28.1 75 -6 21.2
12:55 992 29.29 821 24.24 -2.2 28.1 76 -5.9 21.4
13:00 992 29.29 821 24.24 -2.1 28.2 76 -5.8 21.5
13:05 992 29.29 821 24.24 -2 28.4 75 -5.8 21.5
13:10 992 29.29 821 24.24 -1.9 28.5 76 -5.7 21.8
13:15 992 29.29 821 24.24 -2.3 27.9 80 -5.2 22.6
13:20 992 29.29 821 24.24 -2.4 27.8 77 -5.8 21.6
13:25 992 29.29 821 24.24 -2.3 27.8 76 -5.9 21.3
13:30 992 29.29 821 24.24 -2.3 27.9 82 -4.9 23.1
13:35 992 29.29 821 24.24 -2.7 27.1 83 -5.2 22.6
13:40 992 29.29 821 24.24 -2.8 26.9 83 -5.3 22.4
13:45 992 29.29 821 24.24 -2.6 27.4 82 -5.2 22.6
13:50 992 29.29 821 24.24 -2.7 27.1 84 -5.1 22.9
13:55 992 29.29 821 24.24 -3 26.7 84 -5.3 22.4
14:00 992 29.29 821 24.24 -2.8 27 83 -5.3 22.4
14:05 992 29.29 821 24.24 -2.4 27.8 82 -5 23
14:10 992 29.29 821 24.24 -2.2 28 82 -5 23.1
14:15 992 29.29 821 24.24 -2.6 27.2 85 -4.8 23.3
14:20 992 29.29 822 24.27 -3.1 26.5 87 -4.9 23.2
14:25 992 29.29 822 24.27 -2.8 26.9 85 -5 23
14:30 992 29.29 822 24.27 -2.4 27.7 86 -4.5 24
14:35 992 29.29 822 24.27 -2.7 27.2 85 -4.9 23.2
14:40 993 29.32 822 24.27 -2.5 27.6 84 -4.8 23.3
14:45 993 29.32 822 24.27 -2.5 27.5 85 -4.7 23.5
14:50 993 29.32 822 24.27 -2.4 27.8 85 -4.5 23.9
14:55 993 29.32 822 24.27 -2.5 27.5 84 -4.8 23.4
15:00 993 29.32 822 24.27 -2.4 27.6 84 -4.8 23.3
15:05 993 29.32 822 24.27 -2.1 28.3 83 -4.5 23.9
15:10 993 29.32 822 24.27 -2.3 27.9 85 -4.5 23.9
15:15 993 29.32 822 24.27 -2.5 27.5 85 -4.7 23.6
15:20 993 29.32 822 24.27 -2.5 27.5 86 -4.6 23.8
15:25 993 29.32 822 24.27 -3.1 26.4 90 -4.5 23.8
15:30 993 29.32 822 24.27 -3.2 26.2 90 -4.7 23.5
15:35 993 29.32 822 24.27 -3.2 26.3 89 -4.7 23.5
15:40 993 29.32 822 24.27 -3.3 26 91 -4.6 23.6
15:45 993 29.32 822 24.27 -3.3 26.1 92 -4.4 24
15:50 993 29.32 823 24.3 -2.8 26.9 89 -4.4 24.1
15:55 993 29.32 823 24.3 -2.9 26.7 90 -4.3 24.3
16:00 994 29.35 823 24.3 -3 26.5 89 -4.5 23.8
16:05 994 29.35 823 24.3 -3.2 26.2 92 -4.4 24.1
16:10 994 29.35 823 24.3 -2.9 26.8 90 -4.3 24.2
16:15 994 29.35 823 24.3 -2.6 27.4 88 -4.3 24.3
16:20 994 29.35 823 24.3 -2.7 27.1 89 -4.2 24.4
16:25 994 29.35 823 24.3 -3.2 26.3 91 -4.4 24.1
16:30 994 29.35 823 24.3 -3.1 26.3 91 -4.4 24.1
16:35 994 29.35 823 24.3 -3.2 26.3 92 -4.3 24.2
16:40 994 29.35 823 24.3 -3.2 26.2 92 -4.3 24.3
16:45 994 29.35 823 24.3 -2.9 26.7 90 -4.3 24.2
16:50 994 29.35 823 24.3 -3.2 26.3 92 -4.3 24.3
16:55 994 29.35 823 24.3 -3.2 26.3 92 -4.3 24.2
17:00 994 29.35 823 24.3 -3 26.6 91 -4.3 24.2
17:05 994 29.35 823 24.3 -3.1 26.5 91 -4.4 24.2
17:10 994 29.35 823 24.3 -2.9 26.7 91 -4.3 24.3
17:15 994 29.35 823 24.3 -2.8 26.9 90 -4.3 24.2
17:20 994 29.35 823 24.3 -2.8 27 90 -4.3 24.3
17:25 994 29.35 823 24.3 -2.8 27 89 -4.3 24.3
17:30 994 29.35 824 24.33 -3 26.7 90 -4.4 24.1
17:35 995 29.38 824 24.33 -3.1 26.5 91 -4.4 24.1
17:40 995 29.38 824 24.33 -3.3 26.1 92 -4.4 24
17:45 995 29.38 824 24.33 -3 26.6 89 -4.6 23.8
17:50 995 29.38 824 24.33 -2.8 26.9 87 -4.7 23.6
17:55 995 29.38 824 24.33 -2.8 27 87 -4.7 23.6
18:00 995 29.38 824 24.33 -2.9 26.7 88 -4.6 23.6
18:05 995 29.38 824 24.33 -2.8 26.9 88 -4.6 23.7
18:10 995 29.38 824 24.33 -2.9 26.8 89 -4.5 23.9
18:15 995 29.38 824 24.33 -3.1 26.4 90 -4.6 23.8
18:20 995 29.38 824 24.33 -3 26.6 88 -4.7 23.6
18:25 995 29.38 824 24.33 -2.9 26.7 89 -4.6 23.8
18:30 995 29.38 824 24.33 -2.9 26.7 89 -4.6 23.8
18:35 995 29.38 824 24.33 -2.9 26.7 89 -4.5 23.9
18:40 995 29.38 824 24.33 -3.1 26.5 90 -4.4 24
18:45 995 29.38 824 24.33 -3.1 26.4 91 -4.4 24
18:50 995 29.38 825 24.36 -3.1 26.4 90 -4.6 23.7
18:55 995 29.38 825 24.36 -3.2 26.2 90 -4.7 23.5
19:00 995 29.38 825 24.36 -3.3 26.1 89 -4.8 23.3
19:05 995 29.38 825 24.36 -3.3 26.1 89 -4.8 23.3
19:10 995 29.38 825 24.36 -3.3 26 89 -4.9 23.2
19:15 995 29.38 825 24.36 -3.4 25.8 89 -4.9 23.1
19:20 996 29.41 825 24.36 -3.5 25.7 90 -5 23.1
19:25 996 29.41 825 24.36 -3.6 25.5 90 -5 23
19:30 996 29.41 825 24.36 -3.8 25.1 92 -5 23
19:35 996 29.41 825 24.36 -3.9 25 92 -5.1 22.9
19:40 996 29.41 825 24.36 -4 24.8 92 -5.1 22.9
19:45 996 29.41 825 24.36 -3.8 25.1 92 -5 23
19:50 996 29.41 825 24.36 -3.8 25.1 91 -5.1 22.8
19:55 996 29.41 825 24.36 -3.9 24.9 91 -5.3 22.5
20:00 996 29.41 825 24.36 -4.2 24.5 91 -5.4 22.3
20:05 996 29.41 825 24.36 -4.4 24.2 91 -5.5 22
20:10 996 29.41 825 24.36 -4.5 24 91 -5.7 21.8
20:15 996 29.41 825 24.36 -4.5 23.9 92 -5.7 21.8
20:20 996 29.41 825 24.36 -4.5 23.9 92 -5.7 21.8
20:25 996 29.41 825 24.36 -4.6 23.8 91 -5.8 21.6
20:30 996 29.41 825 24.36 -4.6 23.6 92 -5.8 21.5
20:35 996 29.41 825 24.36 -4.7 23.6 92 -5.9 21.5
20:40 996 29.41 826 24.39 -4.7 23.5 92 -5.9 21.4
20:45 996 29.41 826 24.39 -4.7 23.5 92 -5.9 21.3
20:50 996 29.41 826 24.39 -4.7 23.5 91 -5.9 21.4
20:55 996 29.41 826 24.39 -4.8 23.4 91 -6.1 21.1
21:00 997 29.44 826 24.39 -4.9 23.3 91 -6.1 20.9
21:05 997 29.44 826 24.39 -5 23 91 -6.3 20.6
21:10 997 29.44 826 24.39 -5.1 22.9 91 -6.4 20.5
21:15 997 29.44 826 24.39 -5.2 22.7 91 -6.4 20.4
21:20 997 29.44 826 24.39 -5.2 22.6 91 -6.5 20.3
21:25 997 29.44 826 24.39 -5.2 22.6 91 -6.5 20.2
21:30 997 29.44 826 24.39 -5.3 22.5 90 -6.6 20.1
21:35 997 29.44 826 24.39 -5.4 22.3 90 -6.7 19.9
21:40 997 29.44 826 24.39 -5.5 22.2 90 -6.8 19.8
21:45 997 29.44 826 24.39 -5.5 22 91 -6.8 19.7
21:50 997 29.44 826 24.39 -5.6 21.9 91 -6.9 19.7
21:55 997 29.44 826 24.39 -5.7 21.7 91 -7 19.4
22:00 997 29.44 827 24.42 -5.7 21.7 91 -7 19.5
22:05 997 29.44 827 24.42 -5.8 21.5 90 -7.2 19.1
22:10 997 29.44 827 24.42 -6 21.3 91 -7.1 19.1
22:15 997 29.44 827 24.42 -6 21.2 92 -7.1 19.1
22:20 997 29.44 827 24.42 -6 21.2 91 -7.2 19.1
22:25 998 29.47 827 24.42 -6.1 21.1 91 -7.3 18.8
22:30 998 29.47 827 24.42 -6.2 20.9 91 -7.5 18.6
22:35 998 29.47 827 24.42 -6.3 20.7 90 -7.6 18.3
22:40 998 29.47 827 24.42 -6.3 20.7 90 -7.6 18.3
22:45 998 29.47 827 24.42 -6.3 20.7 90 -7.7 18.1
22:50 998 29.47 827 24.42 -6.5 20.4 90 -7.8 18
22:55 998 29.47 827 24.42 -6.6 20.2 91 -7.8 17.9
23:00 998 29.47 827 24.42 -6.7 19.9 90 -8.1 17.5
23:05 998 29.47 827 24.42 -7 19.4 91 -8.2 17.2
23:10 998 29.47 827 24.42 -7.1 19.2 90 -8.4 16.8
23:15 998 29.47 827 24.42 -7.2 19.1 90 -8.5 16.6
23:20 998 29.47 827 24.42 -7.2 19 90 -8.6 16.6
23:25 998 29.47 828 24.45 -7.3 18.8 90 -8.7 16.4
23:30 998 29.47 828 24.45 -7.4 18.6 91 -8.7 16.3
23:35 998 29.47 828 24.45 -7.5 18.6 91 -8.6 16.4
23:40 998 29.47 828 24.45 -7.4 18.7 90 -8.8 16.2
23:45 999 29.5 828 24.45 -7.5 18.4 91 -8.8 16.2
23:50 999 29.5 828 24.45 -7.6 18.4 90 -9 15.9
23:55 999 29.5 828 24.45 -7.5 18.5 90 -8.9 16
24:00 999 29.5 828 24.45 -7.6 18.4 91 -8.8 16.1